Time;durP1;ratioP1;P1;durP2;ratioP2;P2;SDS_P1;SDS_P2;PMS_P1;PMS_P2;Temp;Humidity;BMP_temperature;BMP_pressure;BME280_temperature;BME280_humidity;BME280_pressure;Samples;Min_cycle;Max_cycle;Signal;HPM_P1;HPM_P2
2023/06/02 00:01:01;;;;;;;8.98;3.63;;;;;;;;;;5010410;28;20034;-60
2023/06/02 00:03:35;;;;;;;7.28;3.90;;;;;;;;;;5010599;28;20049;-60
2023/06/02 00:06:00;;;;;;;11.25;3.70;;;;;;;;;;5007822;28;20030;-61
2023/06/02 00:08:26;;;;;;;8.02;3.75;;;;;;;;;;5010622;28;20049;-61
2023/06/02 00:10:52;;;;;;;7.78;3.47;;;;;;;;;;5010414;28;20033;-60
2023/06/02 00:13:18;;;;;;;6.78;3.22;;;;;;;;;;5000369;28;20030;-61
2023/06/02 00:15:43;;;;;;;13.38;3.70;;;;;;;;;;5005143;28;20398;-60
2023/06/02 00:18:09;;;;;;;7.13;3.60;;;;;;;;;;5008875;28;20038;-61
2023/06/02 00:20:34;;;;;;;7.30;3.67;;;;;;;;;;5009905;28;20382;-60
2023/06/02 00:23:03;;;;;;;8.05;3.50;;;;;;;;;;5009089;28;20095;-60
2023/06/02 00:25:30;;;;;;;7.90;3.45;;;;;;;;;;5008316;28;20041;-60
2023/06/02 00:27:56;;;;;;;13.90;3.63;;;;;;;;;;5009362;28;20173;-60
2023/06/02 00:30:21;;;;;;;9.48;3.67;;;;;;;;;;5010688;28;20486;-60
2023/06/02 00:32:46;;;;;;;10.95;3.50;;;;;;;;;;5008819;28;20041;-60
2023/06/02 00:35:12;;;;;;;8.95;3.80;;;;;;;;;;5009767;28;20033;-60
2023/06/02 00:37:37;;;;;;;10.90;4.03;;;;;;;;;;5007728;28;20522;-60
2023/06/02 00:40:03;;;;;;;9.73;3.97;;;;;;;;;;5005998;28;20053;-60
2023/06/02 00:42:29;;;;;;;11.35;4.50;;;;;;;;;;5009533;28;20475;-60
2023/06/02 00:44:54;;;;;;;9.18;3.88;;;;;;;;;;5009925;28;20045;-60
2023/06/02 00:47:20;;;;;;;10.30;3.83;;;;;;;;;;5007277;28;20042;-60
2023/06/02 00:49:45;;;;;;;8.18;3.80;;;;;;;;;;5008123;28;20040;-60
2023/06/02 00:52:14;;;;;;;9.85;4.20;;;;;;;;;;5005092;28;20038;-61
2023/06/02 00:54:40;;;;;;;10.60;4.13;;;;;;;;;;4998391;28;20029;-60
2023/06/02 00:57:06;;;;;;;9.75;3.75;;;;;;;;;;5009272;28;20033;-60
2023/06/02 00:59:32;;;;;;;11.18;4.00;;;;;;;;;;5009154;28;20030;-60
2023/06/02 01:01:57;;;;;;;11.35;4.00;;;;;;;;;;5010026;28;20057;-61
2023/06/02 01:04:23;;;;;;;9.35;3.85;;;;;;;;;;5009312;28;20389;-60
2023/06/02 01:06:49;;;;;;;8.85;3.80;;;;;;;;;;5010970;28;20048;-60
2023/06/02 01:09:18;;;;;;;9.13;3.60;;;;;;;;;;5007727;28;20037;-61
2023/06/02 01:11:46;;;;;;;7.82;3.30;;;;;;;;;;5002818;28;20041;-60
2023/06/02 01:14:12;;;;;;;7.55;3.50;;;;;;;;;;5003275;28;20475;-61
2023/06/02 01:16:38;;;;;;;10.90;3.65;;;;;;;;;;5007034;28;20042;-60
2023/06/02 01:19:06;;;;;;;11.00;3.75;;;;;;;;;;5007776;28;20034;-60
2023/06/02 01:21:37;;;;;;;12.18;3.67;;;;;;;;;;5010196;28;20044;-60
2023/06/02 01:24:03;;;;;;;13.52;4.43;;;;;;;;;;5007919;28;20127;-60
2023/06/02 01:26:34;;;;;;;9.57;3.83;;;;;;;;;;5006995;28;20482;-60
2023/06/02 01:29:03;;;;;;;12.70;4.15;;;;;;;;;;5004569;28;20030;-60
2023/06/02 01:31:33;;;;;;;11.88;3.67;;;;;;;;;;4991257;28;20038;-60
2023/06/02 01:34:07;;;;;;;12.52;4.53;;;;;;;;;;4993899;28;20108;-60
2023/06/02 01:36:36;;;;;;;10.63;4.10;;;;;;;;;;5008839;28;20041;-61
2023/06/02 01:39:02;;;;;;;11.88;4.63;;;;;;;;;;5011391;28;20139;-61
2023/06/02 01:41:27;;;;;;;14.25;4.45;;;;;;;;;;5008628;28;20129;-61
2023/06/02 01:43:55;;;;;;;11.70;4.05;;;;;;;;;;5002328;28;20375;-60
2023/06/02 01:46:23;;;;;;;11.00;4.57;;;;;;;;;;5006999;28;20461;-60
2023/06/02 01:48:52;;;;;;;12.15;4.68;;;;;;;;;;5010967;28;20252;-60
2023/06/02 01:51:18;;;;;;;10.90;4.68;;;;;;;;;;5012087;28;20060;-60
2023/06/02 01:53:43;;;;;;;10.50;4.53;;;;;;;;;;5014775;28;20113;-60
2023/06/02 01:56:08;;;;;;;10.35;4.18;;;;;;;;;;5011133;28;20042;-61
2023/06/02 01:58:34;;;;;;;13.82;4.50;;;;;;;;;;5012257;28;20061;-60
2023/06/02 02:01:00;;;;;;;13.02;4.35;;;;;;;;;;5014439;28;20037;-60
2023/06/02 02:03:25;;;;;;;11.70;4.20;;;;;;;;;;5012874;28;20061;-60
2023/06/02 02:05:51;;;;;;;13.65;4.53;;;;;;;;;;5011184;28;20065;-60
2023/06/02 02:08:17;;;;;;;14.90;4.45;;;;;;;;;;5013494;28;20030;-61
2023/06/02 02:10:42;;;;;;;10.00;4.18;;;;;;;;;;5008731;28;20545;-60
2023/06/02 02:13:07;;;;;;;12.20;4.35;;;;;;;;;;5013773;28;20105;-60
2023/06/02 02:15:33;;;;;;;10.55;4.10;;;;;;;;;;5011186;28;20103;-61
2023/06/02 02:17:59;;;;;;;12.20;4.68;;;;;;;;;;5006687;28;20436;-61
2023/06/02 02:20:25;;;;;;;11.82;4.28;;;;;;;;;;5011733;28;20029;-61
2023/06/02 02:22:51;;;;;;;13.95;4.22;;;;;;;;;;5009314;28;20052;-60
2023/06/02 02:25:17;;;;;;;10.60;4.10;;;;;;;;;;5010139;28;20026;-61
2023/06/02 02:27:42;;;;;;;13.27;4.13;;;;;;;;;;5012434;28;20366;-60
2023/06/02 02:30:08;;;;;;;11.23;4.40;;;;;;;;;;5014143;28;20117;-60
2023/06/02 02:32:44;;;;;;;10.63;4.35;;;;;;;;;;5008797;28;20041;-61
2023/06/02 02:35:09;;;;;;;12.63;4.35;;;;;;;;;;5000182;28;20394;-60
2023/06/02 02:37:36;;;;;;;12.48;4.43;;;;;;;;;;5008745;28;20148;-60
2023/06/02 02:40:02;;;;;;;10.90;3.80;;;;;;;;;;5012885;28;20046;-60
2023/06/02 02:42:28;;;;;;;12.48;4.28;;;;;;;;;;5012319;28;20112;-60
2023/06/02 02:44:53;;;;;;;9.88;4.38;;;;;;;;;;5012571;28;20121;-60
2023/06/02 02:47:19;;;;;;;15.95;4.40;;;;;;;;;;5009867;28;20034;-61
2023/06/02 02:49:44;;;;;;;14.30;4.03;;;;;;;;;;5012012;28;20038;-60
2023/06/02 02:52:10;;;;;;;11.63;3.78;;;;;;;;;;5012065;28;20053;-61
2023/06/02 02:54:35;;;;;;;9.93;4.00;;;;;;;;;;5009583;28;20452;-60
2023/06/02 02:57:01;;;;;;;11.10;3.83;;;;;;;;;;5009017;28;20038;-62
2023/06/02 02:59:27;;;;;;;12.05;3.97;;;;;;;;;;5010908;28;20169;-60
2023/06/02 03:01:52;;;;;;;10.98;4.20;;;;;;;;;;5011865;28;20120;-61
2023/06/02 03:04:21;;;;;;;14.32;4.63;;;;;;;;;;5010002;28;20467;-61
2023/06/02 03:06:49;;;;;;;14.20;4.15;;;;;;;;;;5013116;28;20116;-61
2023/06/02 03:09:15;;;;;;;8.00;3.65;;;;;;;;;;5011728;28;20029;-62
2023/06/02 03:11:41;;;;;;;12.52;3.58;;;;;;;;;;5013206;28;20030;-59
2023/06/02 03:14:07;;;;;;;14.13;4.50;;;;;;;;;;5013283;28;20167;-60
2023/06/02 03:16:34;;;;;;;7.60;3.70;;;;;;;;;;5011520;28;20038;-60
2023/06/02 03:19:00;;;;;;;15.10;5.00;;;;;;;;;;5011261;28;20144;-60
2023/06/02 03:21:26;;;;;;;11.77;4.20;;;;;;;;;;5008533;28;20026;-59
2023/06/02 03:23:53;;;;;;;11.27;4.28;;;;;;;;;;5009962;28;20463;-60
2023/06/02 03:26:25;;;;;;;11.23;4.32;;;;;;;;;;5006747;28;20040;-60
2023/06/02 03:28:51;;;;;;;11.30;4.47;;;;;;;;;;5010983;28;20029;-60
2023/06/02 03:31:16;;;;;;;15.75;4.90;;;;;;;;;;5003989;28;20108;-60
2023/06/02 03:33:42;;;;;;;11.63;4.45;;;;;;;;;;5009019;28;20467;-60
2023/06/02 03:36:07;;;;;;;13.57;4.60;;;;;;;;;;5012224;28;20038;-60
2023/06/02 03:38:33;;;;;;;14.15;4.57;;;;;;;;;;5010673;28;20030;-60
2023/06/02 03:40:58;;;;;;;11.65;4.60;;;;;;;;;;5012800;28;20050;-60
2023/06/02 03:43:24;;;;;;;15.50;4.43;;;;;;;;;;5000690;28;20061;-59
2023/06/02 03:45:49;;;;;;;12.95;4.45;;;;;;;;;;5011114;28;20045;-62
2023/06/02 03:48:15;;;;;;;12.07;4.20;;;;;;;;;;5006948;28;20044;-61
2023/06/02 03:50:41;;;;;;;16.38;4.22;;;;;;;;;;5009375;28;20119;-61
2023/06/02 03:53:06;;;;;;;11.60;4.10;;;;;;;;;;5012581;28;20026;-61
2023/06/02 03:55:31;;;;;;;9.98;4.30;;;;;;;;;;5006352;28;20096;-61
2023/06/02 03:57:57;;;;;;;16.50;4.50;;;;;;;;;;5010302;28;20466;-60
2023/06/02 04:00:22;;;;;;;13.63;4.72;;;;;;;;;;5011117;28;20022;-61
2023/06/02 04:02:48;;;;;;;12.73;4.38;;;;;;;;;;5009920;28;20037;-61
2023/06/02 04:05:14;;;;;;;14.40;4.40;;;;;;;;;;5002858;28;20034;-61
2023/06/02 04:07:40;;;;;;;17.33;4.35;;;;;;;;;;5007507;28;20141;-59
2023/06/02 04:10:06;;;;;;;12.35;4.20;;;;;;;;;;5009566;28;20492;-59
2023/06/02 04:12:31;;;;;;;12.80;4.05;;;;;;;;;;5010067;28;20033;-62
2023/06/02 04:14:57;;;;;;;11.13;4.18;;;;;;;;;;5010387;28;20041;-60
2023/06/02 04:17:22;;;;;;;10.10;4.20;;;;;;;;;;5004645;28;20048;-60
2023/06/02 04:19:48;;;;;;;9.13;4.10;;;;;;;;;;5008461;28;20049;-60
2023/06/02 04:22:13;;;;;;;13.52;3.95;;;;;;;;;;5005186;28;20076;-60
2023/06/02 04:24:41;;;;;;;11.70;3.97;;;;;;;;;;5002857;28;20037;-60
2023/06/02 04:27:06;;;;;;;13.57;3.83;;;;;;;;;;5008522;28;20026;-60
2023/06/02 04:29:33;;;;;;;11.27;4.25;;;;;;;;;;5008696;28;20060;-60
2023/06/02 04:31:58;;;;;;;14.52;4.25;;;;;;;;;;5006785;28;20061;-60
2023/06/02 04:34:24;;;;;;;12.10;4.00;;;;;;;;;;5007468;28;20472;-60
2023/06/02 04:36:50;;;;;;;9.60;3.88;;;;;;;;;;5009787;28;20030;-59
2023/06/02 04:39:15;;;;;;;12.50;4.43;;;;;;;;;;5011132;28;20041;-59
2023/06/02 04:41:41;;;;;;;11.48;4.28;;;;;;;;;;5007673;28;20632;-59
2023/06/02 04:44:09;;;;;;;13.65;4.40;;;;;;;;;;5008328;28;20034;-61
2023/06/02 04:46:34;;;;;;;14.93;4.03;;;;;;;;;;5009212;28;20481;-60
2023/06/02 04:48:59;;;;;;;7.88;4.00;;;;;;;;;;5010105;28;20057;-59
2023/06/02 04:51:29;;;;;;;10.35;4.13;;;;;;;;;;5010556;28;20105;-62
2023/06/02 04:53:55;;;;;;;9.82;4.60;;;;;;;;;;5011018;28;20456;-59
2023/06/02 04:56:23;;;;;;;9.63;4.57;;;;;;;;;;5009867;28;20034;-60
2023/06/02 04:58:48;;;;;;;13.73;4.80;;;;;;;;;;5011704;28;20033;-60
2023/06/02 05:01:14;;;;;;;13.65;4.72;;;;;;;;;;5010813;28;20108;-62
2023/06/02 05:03:40;;;;;;;12.70;4.43;;;;;;;;;;5009724;28;20030;-61
2023/06/02 05:06:05;;;;;;;12.30;4.65;;;;;;;;;;5011842;28;20029;-59
2023/06/02 05:08:31;;;;;;;11.13;4.82;;;;;;;;;;5010844;28;20033;-61
2023/06/02 05:10:56;;;;;;;14.07;4.80;;;;;;;;;;5011903;28;20486;-62
2023/06/02 05:13:23;;;;;;;11.70;4.38;;;;;;;;;;5008768;28;20065;-60
2023/06/02 05:15:48;;;;;;;11.35;4.90;;;;;;;;;;5011654;28;20041;-60
2023/06/02 05:18:14;;;;;;;12.40;4.60;;;;;;;;;;5011348;28;20045;-60
2023/06/02 05:20:41;;;;;;;14.15;5.25;;;;;;;;;;5009378;28;20038;-60
2023/06/02 05:23:07;;;;;;;11.93;4.82;;;;;;;;;;5012169;28;20036;-60
2023/06/02 05:25:32;;;;;;;9.93;4.70;;;;;;;;;;5012368;28;20378;-61
2023/06/02 05:27:57;;;;;;;16.92;4.88;;;;;;;;;;5014123;28;20072;-60
2023/06/02 05:30:23;;;;;;;15.23;4.80;;;;;;;;;;5014996;28;20356;-60
2023/06/02 05:32:48;;;;;;;12.25;4.85;;;;;;;;;;5015018;28;20034;-60
2023/06/02 05:35:14;;;;;;;13.48;4.57;;;;;;;;;;5015293;28;20038;-60
2023/06/02 05:37:39;;;;;;;12.48;4.47;;;;;;;;;;5013068;28;20037;-60
2023/06/02 05:40:05;;;;;;;13.07;5.35;;;;;;;;;;5001427;28;20050;-60
2023/06/02 05:42:30;;;;;;;9.77;4.25;;;;;;;;;;4995758;28;20471;-60
2023/06/02 05:44:56;;;;;;;13.07;4.93;;;;;;;;;;5000011;28;20038;-60
2023/06/02 05:47:21;;;;;;;15.40;5.57;;;;;;;;;;4998498;28;20026;-60
2023/06/02 05:49:46;;;;;;;12.55;4.70;;;;;;;;;;5011128;28;20041;-60
2023/06/02 05:52:12;;;;;;;14.90;4.70;;;;;;;;;;5012753;28;20061;-60
2023/06/02 05:54:38;;;;;;;14.43;4.70;;;;;;;;;;4998747;28;20541;-60
2023/06/02 05:57:03;;;;;;;14.95;4.78;;;;;;;;;;5004185;28;20112;-59
2023/06/02 05:59:29;;;;;;;10.10;4.68;;;;;;;;;;4994550;28;20113;-61
2023/06/02 06:01:54;;;;;;;13.88;4.80;;;;;;;;;;4994663;28;20031;-60
2023/06/02 06:04:20;;;;;;;10.80;5.57;;;;;;;;;;4994575;28;20367;-60
2023/06/02 06:06:45;;;;;;;11.10;4.45;;;;;;;;;;4993792;28;20053;-60
2023/06/02 06:09:11;;;;;;;9.88;4.32;;;;;;;;;;5002611;28;20454;-61
2023/06/02 06:11:36;;;;;;;11.15;4.75;;;;;;;;;;5013519;28;20042;-60
2023/06/02 06:14:02;;;;;;;10.50;4.63;;;;;;;;;;5007598;28;20091;-60
2023/06/02 06:16:28;;;;;;;13.48;4.45;;;;;;;;;;5002306;28;20046;-60
2023/06/02 06:18:55;;;;;;;13.70;4.85;;;;;;;;;;5000307;28;20025;-60
2023/06/02 06:21:20;;;;;;;11.27;4.50;;;;;;;;;;5013601;28;20069;-61
2023/06/02 06:23:46;;;;;;;11.82;4.80;;;;;;;;;;5001300;28;20054;-60
2023/06/02 06:26:11;;;;;;;9.90;4.60;;;;;;;;;;5007082;28;20041;-61
2023/06/02 06:28:37;;;;;;;12.65;4.97;;;;;;;;;;5001276;28;20168;-60
2023/06/02 06:31:02;;;;;;;13.50;4.70;;;;;;;;;;4994279;28;20096;-60
2023/06/02 06:33:29;;;;;;;11.93;4.82;;;;;;;;;;4993087;28;20038;-60
2023/06/02 06:35:54;;;;;;;11.57;4.30;;;;;;;;;;4994532;28;20038;-60
2023/06/02 06:38:19;;;;;;;12.93;4.80;;;;;;;;;;5007268;28;20057;-61
2023/06/02 06:40:45;;;;;;;11.88;4.63;;;;;;;;;;5012583;28;20479;-60
2023/06/02 06:43:10;;;;;;;13.35;4.53;;;;;;;;;;5009931;28;20054;-60
2023/06/02 06:45:36;;;;;;;13.38;4.78;;;;;;;;;;5009486;28;20493;-61
2023/06/02 06:48:04;;;;;;;15.90;4.82;;;;;;;;;;5013568;28;20121;-60
2023/06/02 06:50:30;;;;;;;14.93;4.95;;;;;;;;;;5012757;28;20037;-60
2023/06/02 06:52:55;;;;;;;9.25;4.57;;;;;;;;;;5008846;28;20399;-60
2023/06/02 06:55:20;;;;;;;13.00;4.75;;;;;;;;;;5013456;28;20036;-60
2023/06/02 06:57:46;;;;;;;10.80;4.50;;;;;;;;;;5011075;28;20489;-60
2023/06/02 07:00:12;;;;;;;9.35;4.47;;;;;;;;;;4994027;28;20038;-61
2023/06/02 07:02:37;;;;;;;11.88;4.50;;;;;;;;;;5008019;28;20117;-60
2023/06/02 07:05:03;;;;;;;9.50;4.00;;;;;;;;;;4997326;28;20113;-60
2023/06/02 07:07:29;;;;;;;12.65;4.45;;;;;;;;;;5011403;28;20107;-62
2023/06/02 07:09:55;;;;;;;14.35;5.05;;;;;;;;;;4994729;28;20479;-61
2023/06/02 07:12:20;;;;;;;14.48;4.78;;;;;;;;;;4993482;28;20034;-60
2023/06/02 07:14:46;;;;;;;10.32;4.50;;;;;;;;;;5007894;28;20045;-60
2023/06/02 07:17:11;;;;;;;11.07;4.80;;;;;;;;;;5011915;28;20037;-61
2023/06/02 07:19:37;;;;;;;11.57;4.25;;;;;;;;;;5011257;28;20160;-61
2023/06/02 07:22:02;;;;;;;10.27;4.20;;;;;;;;;;5013077;28;20382;-61
2023/06/02 07:24:27;;;;;;;14.35;4.35;;;;;;;;;;4998774;28;20121;-61
2023/06/02 07:26:54;;;;;;;13.73;4.68;;;;;;;;;;4993007;28;20379;-60
2023/06/02 07:29:20;;;;;;;11.35;4.35;;;;;;;;;;5008595;28;20105;-60
2023/06/02 07:31:45;;;;;;;8.73;4.10;;;;;;;;;;5010160;28;20058;-61
2023/06/02 07:34:11;;;;;;;14.02;4.10;;;;;;;;;;5007891;28;20038;-60
2023/06/02 07:36:38;;;;;;;11.73;4.05;;;;;;;;;;5009484;28;20117;-61
2023/06/02 07:39:03;;;;;;;9.85;3.70;;;;;;;;;;5002856;28;20038;-61
2023/06/02 07:41:29;;;;;;;9.70;3.75;;;;;;;;;;4992986;28;20050;-63
2023/06/02 07:43:54;;;;;;;11.40;3.70;;;;;;;;;;4998833;28;20085;-61
2023/06/02 07:46:20;;;;;;;11.15;3.35;;;;;;;;;;5003898;28;20111;-61
2023/06/02 07:48:45;;;;;;;10.23;3.00;;;;;;;;;;4994284;28;20112;-61
2023/06/02 07:51:11;;;;;;;6.70;2.78;;;;;;;;;;4993459;28;20110;-61
2023/06/02 07:53:37;;;;;;;10.10;3.10;;;;;;;;;;5003978;28;20128;-61
2023/06/02 07:56:02;;;;;;;10.57;3.17;;;;;;;;;;5012462;28;20038;-61
2023/06/02 07:58:28;;;;;;;8.73;3.00;;;;;;;;;;5008048;28;20467;-61
2023/06/02 08:00:53;;;;;;;9.57;2.95;;;;;;;;;;5007654;28;20057;-60
2023/06/02 08:03:19;;;;;;;10.85;3.17;;;;;;;;;;5008792;28;20044;-61
2023/06/02 08:05:45;;;;;;;9.77;2.88;;;;;;;;;;4990724;28;20034;-59
2023/06/02 08:08:11;;;;;;;7.18;2.88;;;;;;;;;;4992771;28;20109;-60
2023/06/02 08:10:36;;;;;;;9.18;3.15;;;;;;;;;;5006587;28;20121;-61
2023/06/02 08:13:02;;;;;;;6.93;2.90;;;;;;;;;;5010072;28;20026;-61
2023/06/02 08:15:27;;;;;;;9.93;3.13;;;;;;;;;;5011921;28;20034;-60
2023/06/02 08:17:52;;;;;;;11.88;2.88;;;;;;;;;;5011359;28;20040;-61
2023/06/02 08:20:18;;;;;;;9.13;3.00;;;;;;;;;;5011788;28;20034;-60
2023/06/02 08:22:44;;;;;;;8.25;2.72;;;;;;;;;;5009026;28;20175;-61
2023/06/02 08:25:12;;;;;;;12.35;3.30;;;;;;;;;;4995985;28;20030;-61
2023/06/02 08:27:38;;;;;;;8.80;2.95;;;;;;;;;;5005465;28;20497;-60
2023/06/02 08:30:07;;;;;;;10.00;2.80;;;;;;;;;;4997006;28;20471;-61
2023/06/02 08:32:33;;;;;;;10.55;3.20;;;;;;;;;;5001157;28;20042;-61
2023/06/02 08:35:01;;;;;;;10.25;2.90;;;;;;;;;;4997553;28;20041;-60
2023/06/02 08:37:27;;;;;;;8.60;3.03;;;;;;;;;;5001722;28;20419;-61
2023/06/02 08:39:53;;;;;;;11.18;3.67;;;;;;;;;;4996614;28;20379;-61
2023/06/02 08:42:19;;;;;;;13.98;3.05;;;;;;;;;;5008642;28;20041;-60
2023/06/02 08:44:45;;;;;;;9.45;3.15;;;;;;;;;;4999036;28;20041;-61
2023/06/02 08:47:12;;;;;;;12.85;3.05;;;;;;;;;;5008239;28;20030;-60
2023/06/02 08:49:42;;;;;;;8.90;2.90;;;;;;;;;;4999804;28;20395;-61
2023/06/02 08:52:26;;;;;;;8.55;2.80;;;;;;;;;;4991887;28;20034;-60
2023/06/02 08:54:53;;;;;;;10.88;3.17;;;;;;;;;;4991231;28;20048;-63
2023/06/02 08:57:22;;;;;;;13.43;3.65;;;;;;;;;;4995766;28;20137;-60
2023/06/02 08:59:48;;;;;;;9.10;2.60;;;;;;;;;;5005070;28;20122;-61
2023/06/02 09:02:15;;;;;;;9.02;3.28;;;;;;;;;;5002549;28;20029;-61
2023/06/02 09:04:41;;;;;;;14.50;3.35;;;;;;;;;;4999901;28;20040;-61
2023/06/02 09:07:12;;;;;;;12.63;3.22;;;;;;;;;;5015646;28;20026;-61
2023/06/02 09:09:43;;;;;;;10.48;3.33;;;;;;;;;;5005138;28;20154;-61
2023/06/02 09:12:09;;;;;;;14.07;3.70;;;;;;;;;;4995472;28;20077;-60
2023/06/02 09:14:38;;;;;;;13.85;3.50;;;;;;;;;;5002884;28;20050;-62
2023/06/02 09:17:23;;;;;;;12.80;3.42;;;;;;;;;;4997780;28;20120;-61
2023/06/02 09:19:50;;;;;;;10.73;3.40;;;;;;;;;;5003524;28;20042;-61
2023/06/02 09:22:16;;;;;;;12.90;3.03;;;;;;;;;;4996107;28;20033;-60
2023/06/02 09:24:41;;;;;;;10.05;3.58;;;;;;;;;;4994912;28;20034;-60
2023/06/02 09:27:12;;;;;;;10.45;2.90;;;;;;;;;;5005580;28;22040;-60
2023/06/02 09:29:39;;;;;;;7.93;3.00;;;;;;;;;;5003907;28;20046;-60
2023/06/02 09:32:12;;;;;;;9.93;3.20;;;;;;;;;;5000211;28;20040;-61
2023/06/02 09:34:38;;;;;;;14.05;3.35;;;;;;;;;;5001437;28;20042;-60
2023/06/02 09:37:15;;;;;;;9.48;3.47;;;;;;;;;;4995489;28;20031;-60
2023/06/02 09:40:07;;;;;;;9.02;3.17;;;;;;;;;;4995317;28;20031;-61
2023/06/02 09:42:42;;;;;;;11.05;3.13;;;;;;;;;;5002625;28;20129;-61
2023/06/02 09:45:08;;;;;;;15.45;3.63;;;;;;;;;;5000574;28;20037;-61
2023/06/02 09:47:40;;;;;;;11.27;3.30;;;;;;;;;;5011240;28;20451;-60
2023/06/02 09:50:06;;;;;;;10.15;3.53;;;;;;;;;;5003570;28;20065;-59
2023/06/02 09:52:32;;;;;;;10.18;3.40;;;;;;;;;;5009669;28;20111;-60
2023/06/02 09:54:58;;;;;;;9.38;3.10;;;;;;;;;;5003504;28;20459;-60
2023/06/02 09:57:24;;;;;;;8.88;3.20;;;;;;;;;;4995124;28;20045;-60
2023/06/02 09:59:49;;;;;;;11.70;3.30;;;;;;;;;;4997029;28;20046;-60
2023/06/02 10:02:15;;;;;;;11.88;3.53;;;;;;;;;;4995075;28;20107;-60
2023/06/02 10:04:41;;;;;;;6.70;3.15;;;;;;;;;;4999037;28;20471;-60
2023/06/02 10:07:43;;;;;;;12.93;3.50;;;;;;;;;;5013942;28;20057;-61
2023/06/02 10:10:18;;;;;;;11.60;3.60;;;;;;;;;;5003434;28;20034;-61
2023/06/02 10:12:54;;;;;;;11.60;4.10;;;;;;;;;;5004150;28;20442;-61
2023/06/02 10:15:57;;;;;;;14.27;3.47;;;;;;;;;;5002389;28;20053;-60
2023/06/02 10:18:28;;;;;;;9.43;3.53;;;;;;;;;;5013959;28;20127;-60
2023/06/02 10:21:24;;;;;;;12.32;3.75;;;;;;;;;;5009409;28;20030;-60
2023/06/02 10:24:08;;;;;;;9.35;3.70;;;;;;;;;;5014625;28;20029;-60
2023/06/02 10:26:50;;;;;;;11.73;3.97;;;;;;;;;;5013094;28;20037;-61
2023/06/02 10:29:16;;;;;;;14.50;3.65;;;;;;;;;;5013924;28;20041;-60
2023/06/02 10:31:44;;;;;;;10.13;3.50;;;;;;;;;;5012311;28;20026;-61
2023/06/02 10:34:38;;;;;;;10.65;3.55;;;;;;;;;;5012557;28;20042;-60
2023/06/02 10:37:04;;;;;;;9.05;3.17;;;;;;;;;;5004885;28;20482;-60
2023/06/02 10:39:56;;;;;;;10.90;3.25;;;;;;;;;;5009078;28;20064;-62
2023/06/02 10:42:25;;;;;;;9.65;3.60;;;;;;;;;;4997090;28;20058;-61
2023/06/02 10:44:52;;;;;;;10.17;3.70;;;;;;;;;;5005868;28;20120;-61
2023/06/02 10:47:17;;;;;;;10.45;3.45;;;;;;;;;;4993942;28;20383;-61
2023/06/02 10:50:04;;;;;;;10.70;3.58;;;;;;;;;;5007086;28;20034;-61
2023/06/02 10:52:31;;;;;;;13.55;3.33;;;;;;;;;;4993553;28;20042;-61
2023/06/02 10:55:12;;;;;;;11.38;4.10;;;;;;;;;;4998895;28;20033;-59
2023/06/02 10:58:03;;;;;;;8.35;3.67;;;;;;;;;;5012629;28;20532;-61
2023/06/02 11:00:43;;;;;;;11.93;3.47;;;;;;;;;;5007295;28;20030;-61
2023/06/02 11:03:17;;;;;;;10.85;3.30;;;;;;;;;;5012528;28;20088;-60
2023/06/02 11:05:44;;;;;;;10.75;3.30;;;;;;;;;;4999539;28;20040;-62
2023/06/02 11:08:10;;;;;;;13.18;3.83;;;;;;;;;;4993678;28;20034;-61
2023/06/02 11:10:41;;;;;;;9.05;3.50;;;;;;;;;;4992721;28;20027;-59
2023/06/02 11:13:07;;;;;;;11.20;3.95;;;;;;;;;;4992413;28;20038;-61
2023/06/02 11:15:33;;;;;;;9.25;3.65;;;;;;;;;;4999928;28;20033;-62
2023/06/02 11:17:59;;;;;;;10.27;3.95;;;;;;;;;;5006950;28;20034;-60
2023/06/02 11:20:35;;;;;;;10.25;3.60;;;;;;;;;;5002083;28;20541;-61
2023/06/02 11:23:07;;;;;;;12.55;3.78;;;;;;;;;;4992482;28;20030;-61
2023/06/02 11:25:32;;;;;;;13.23;3.78;;;;;;;;;;4994693;28;20109;-62
2023/06/02 11:27:57;;;;;;;9.65;3.90;;;;;;;;;;5013139;28;20042;-62
2023/06/02 11:30:24;;;;;;;10.27;3.58;;;;;;;;;;5004290;28;20026;-59
2023/06/02 11:32:51;;;;;;;15.55;4.38;;;;;;;;;;5011333;28;20624;-60
2023/06/02 11:35:20;;;;;;;12.63;3.85;;;;;;;;;;5005754;28;20038;-60
2023/06/02 11:38:02;;;;;;;10.55;3.75;;;;;;;;;;4994234;28;20034;-60
2023/06/02 11:40:36;;;;;;;9.88;3.65;;;;;;;;;;5067669;28;20372;-61
2023/06/02 11:43:02;;;;;;;10.70;3.47;;;;;;;;;;5068772;28;20036;-60
2023/06/02 11:45:29;;;;;;;10.68;4.00;;;;;;;;;;5068470;28;20384;-61
2023/06/02 11:48:13;;;;;;;14.68;4.05;;;;;;;;;;5067937;28;20436;-63
2023/06/02 11:50:39;;;;;;;13.00;3.90;;;;;;;;;;5067120;28;20036;-61
2023/06/02 11:53:14;;;;;;;8.95;3.85;;;;;;;;;;5076585;28;20055;-60
2023/06/02 11:55:40;;;;;;;11.45;3.60;;;;;;;;;;5078925;28;20037;-60
2023/06/02 11:58:22;;;;;;;11.18;4.25;;;;;;;;;;5068869;28;20020;-60
2023/06/02 12:00:50;;;;;;;12.85;3.67;;;;;;;;;;5072998;28;20044;-60
2023/06/02 12:03:15;;;;;;;16.23;3.85;;;;;;;;;;5068730;28;20035;-61
2023/06/02 12:05:45;;;;;;;11.88;4.28;;;;;;;;;;5072180;28;20032;-61
2023/06/02 12:08:24;;;;;;;11.98;4.18;;;;;;;;;;5076500;28;20040;-60
2023/06/02 12:10:51;;;;;;;9.77;3.50;;;;;;;;;;5076756;28;20056;-61
2023/06/02 12:13:26;;;;;;;11.00;4.00;;;;;;;;;;5068141;28;20033;-60
2023/06/02 12:15:53;;;;;;;8.48;3.55;;;;;;;;;;5067570;28;20064;-61
2023/06/02 12:18:32;;;;;;;10.45;3.80;;;;;;;;;;5068083;28;20044;-60
2023/06/02 12:21:00;;;;;;;9.80;3.75;;;;;;;;;;5076427;28;20115;-60
2023/06/02 12:23:45;;;;;;;11.43;3.70;;;;;;;;;;5088191;28;20032;-61
2023/06/02 12:26:11;;;;;;;11.52;3.25;;;;;;;;;;5067156;28;20051;-60
2023/06/02 12:28:38;;;;;;;10.27;3.58;;;;;;;;;;5081691;28;20115;-61
2023/06/02 12:31:03;;;;;;;9.95;3.67;;;;;;;;;;5075177;28;20036;-61
2023/06/02 12:33:28;;;;;;;9.27;3.63;;;;;;;;;;5071675;28;20043;-61
2023/06/02 12:35:55;;;;;;;12.43;4.00;;;;;;;;;;5078612;28;20114;-61
2023/06/02 12:38:20;;;;;;;12.50;3.60;;;;;;;;;;5075714;28;20033;-61
2023/06/02 12:40:45;;;;;;;17.05;4.10;;;;;;;;;;5069923;28;20562;-61
2023/06/02 12:43:13;;;;;;;9.50;3.20;;;;;;;;;;5053646;28;20533;-62
2023/06/02 12:45:38;;;;;;;11.55;3.92;;;;;;;;;;5069009;28;20127;-60
2023/06/02 12:48:04;;;;;;;8.07;3.17;;;;;;;;;;5070921;28;20100;-60
2023/06/02 12:50:29;;;;;;;11.07;4.00;;;;;;;;;;5055139;28;20094;-60
2023/06/02 12:52:56;;;;;;;13.95;4.00;;;;;;;;;;5042042;28;20029;-59
2023/06/02 12:55:21;;;;;;;8.13;3.58;;;;;;;;;;5055608;28;20036;-60
2023/06/02 12:57:47;;;;;;;12.75;3.75;;;;;;;;;;5054777;28;20381;-62
2023/06/02 13:00:16;;;;;;;9.77;3.78;;;;;;;;;;5056122;28;20107;-61
2023/06/02 13:02:42;;;;;;;8.73;3.78;;;;;;;;;;5053420;28;20032;-62
2023/06/02 13:05:11;;;;;;;11.93;3.70;;;;;;;;;;5054285;28;20123;-59
2023/06/02 13:07:38;;;;;;;12.77;4.05;;;;;;;;;;5053390;28;20176;-60
2023/06/02 13:10:04;;;;;;;11.65;4.28;;;;;;;;;;5046118;28;20370;-60
2023/06/02 13:12:30;;;;;;;9.90;3.63;;;;;;;;;;5068230;28;20043;-60
2023/06/02 13:14:56;;;;;;;9.75;3.70;;;;;;;;;;5071762;28;20119;-59
2023/06/02 13:17:21;;;;;;;12.32;3.75;;;;;;;;;;5054134;28;20342;-59
2023/06/02 13:19:47;;;;;;;8.15;3.30;;;;;;;;;;5052250;28;20041;-60
2023/06/02 13:22:15;;;;;;;11.38;4.03;;;;;;;;;;5051970;28;20546;-59
2023/06/02 13:24:41;;;;;;;8.55;3.65;;;;;;;;;;5072984;28;20035;-59
2023/06/02 13:27:07;;;;;;;11.25;3.80;;;;;;;;;;5074060;28;20447;-59
2023/06/02 13:29:32;;;;;;;11.35;3.92;;;;;;;;;;5072925;28;20058;-60
2023/06/02 13:31:58;;;;;;;10.40;3.97;;;;;;;;;;5071164;28;20469;-59
2023/06/02 13:34:24;;;;;;;9.25;4.05;;;;;;;;;;5051105;28;20033;-59
2023/06/02 13:36:50;;;;;;;11.75;4.22;;;;;;;;;;5072875;28;20031;-60
2023/06/02 13:39:16;;;;;;;11.85;3.88;;;;;;;;;;5073258;28;20155;-61
2023/06/02 13:41:41;;;;;;;7.88;3.75;;;;;;;;;;5072698;28;20528;-61
2023/06/02 13:44:11;;;;;;;12.10;3.97;;;;;;;;;;5073601;28;20389;-60
2023/06/02 13:46:38;;;;;;;10.60;3.78;;;;;;;;;;5051689;28;20040;-60
2023/06/02 13:49:04;;;;;;;12.43;4.45;;;;;;;;;;5048954;28;20044;-60
2023/06/02 13:51:29;;;;;;;11.85;4.13;;;;;;;;;;5053334;28;20025;-60
2023/06/02 13:53:55;;;;;;;9.30;4.28;;;;;;;;;;5052422;28;20036;-60
2023/06/02 13:56:21;;;;;;;9.88;4.32;;;;;;;;;;5045751;28;20025;-61
2023/06/02 13:58:47;;;;;;;13.20;4.63;;;;;;;;;;5061293;28;20055;-62
2023/06/02 14:01:12;;;;;;;10.45;4.30;;;;;;;;;;5072944;28;20461;-61
2023/06/02 14:03:38;;;;;;;8.88;3.95;;;;;;;;;;5071181;28;20029;-61
2023/06/02 14:06:03;;;;;;;8.43;4.13;;;;;;;;;;5073150;28;20055;-61
2023/06/02 14:08:28;;;;;;;11.50;3.95;;;;;;;;;;5073062;28;20028;-61
2023/06/02 14:10:54;;;;;;;8.88;3.83;;;;;;;;;;5054207;28;20521;-61
2023/06/02 14:13:19;;;;;;;9.77;4.30;;;;;;;;;;5052951;28;20432;-61
2023/06/02 14:15:46;;;;;;;10.98;4.35;;;;;;;;;;5052133;28;20025;-61
2023/06/02 14:18:11;;;;;;;9.52;3.97;;;;;;;;;;5052859;28;20392;-61
2023/06/02 14:20:37;;;;;;;9.00;3.25;;;;;;;;;;5051608;28;20029;-61
2023/06/02 14:23:02;;;;;;;6.65;3.28;;;;;;;;;;5052588;28;20029;-61
2023/06/02 14:25:28;;;;;;;9.10;3.53;;;;;;;;;;5046046;28;20087;-61
2023/06/02 14:27:53;;;;;;;11.07;3.35;;;;;;;;;;5048689;28;20029;-61
2023/06/02 14:30:19;;;;;;;8.13;3.40;;;;;;;;;;5052458;28;20031;-61
2023/06/02 14:32:44;;;;;;;8.88;3.10;;;;;;;;;;5051794;28;20025;-61
2023/06/02 14:35:10;;;;;;;12.30;3.50;;;;;;;;;;5049095;28;20453;-61